Time;durP1;ratioP1;P1;durP2;ratioP2;P2;SDS_P1;SDS_P2;PMS_P1;PMS_P2;Temp;Humidity;BMP_temperature;BMP_pressure;BME280_temperature;BME280_humidity;BME280_pressure;Samples;Min_cycle;Max_cycle;Signal;HPM_P1;HPM_P2
2021/08/15 00:02:04;;;;;;;18.80;15.17;;;;;;;19.75;74.79;98765.82;262605;1087;22800;-71
2021/08/15 00:07:30;;;;;;;18.47;16.40;;;;;;;19.58;75.52;98756.08;262512;1086;22763;-72
2021/08/15 00:12:42;;;;;;;21.13;17.77;;;;;;;19.45;76.47;98766.23;262642;1087;22797;-72
2021/08/15 00:17:47;;;;;;;21.57;18.30;;;;;;;19.35;77.37;98756.66;262712;1088;26111;-73
2021/08/15 00:22:53;;;;;;;22.40;18.80;;;;;;;19.29;77.85;98755.31;262604;1087;22770;-72
2021/08/15 00:27:59;;;;;;;21.15;18.55;;;;;;;19.23;78.15;98752.06;262665;1087;26008;-73
2021/08/15 00:33:06;;;;;;;23.40;19.35;;;;;;;19.20;78.33;98752.77;262910;1089;22833;-72
2021/08/15 00:38:09;;;;;;;27.30;20.90;;;;;;;19.16;78.57;98751.88;262947;1088;22924;-72
2021/08/15 00:43:13;;;;;;;27.85;20.55;;;;;;;19.22;78.58;98753.19;262715;1088;25905;-71
2021/08/15 00:48:16;;;;;;;23.20;19.45;;;;;;;19.32;78.74;98755.42;262661;1089;22776;-72
2021/08/15 00:53:19;;;;;;;22.55;19.20;;;;;;;19.32;78.66;98751.91;262863;1087;22788;-72
2021/08/15 00:58:22;;;;;;;22.70;19.95;;;;;;;19.37;79.38;98748.94;262637;1090;25963;-72
2021/08/15 01:03:26;;;;;;;26.20;21.67;;;;;;;19.40;79.38;98748.23;262758;1087;25983;-72
2021/08/15 01:08:38;;;;;;;24.70;19.60;;;;;;;19.42;79.72;98743.27;262553;1087;22786;-72
2021/08/15 01:13:42;;;;;;;23.67;20.33;;;;;;;19.53;79.75;98742.74;262813;1089;25586;-73
2021/08/15 01:18:47;;;;;;;23.70;19.20;;;;;;;19.60;79.42;98746.45;262625;1090;25858;-71
2021/08/15 01:23:50;;;;;;;20.25;18.05;;;;;;;19.54;79.36;98745.11;262733;1089;25855;-71
2021/08/15 01:28:54;;;;;;;22.60;20.17;;;;;;;19.46;78.93;98740.63;262858;1090;22775;-72
2021/08/15 01:33:57;;;;;;;24.60;19.65;;;;;;;19.38;79.17;98738.89;262703;1088;26236;-72
2021/08/15 01:39:00;;;;;;;24.90;21.00;;;;;;;19.32;79.37;98732.89;262694;1087;25149;-73
2021/08/15 01:44:04;;;;;;;23.03;19.27;;;;;;;19.38;80.00;98742.38;262624;1089;23389;-72
2021/08/15 01:49:18;;;;;;;23.35;19.90;;;;;;;19.43;80.09;98728.55;262629;1087;22855;-71
2021/08/15 01:54:32;;;;;;;23.00;20.25;;;;;;;19.49;79.94;98737.23;262679;1087;25992;-72
2021/08/15 01:59:36;;;;;;;27.80;18.30;;;;;;;19.47;80.06;98734.06;262796;1088;24310;-72
2021/08/15 02:04:39;;;;;;;20.45;18.25;;;;;;;19.50;79.91;98717.06;262703;1087;28054;-72
2021/08/15 02:09:42;;;;;;;19.10;17.10;;;;;;;19.52;79.75;98713.99;262682;1087;22777;-71
2021/08/15 02:14:47;;;;;;;19.47;17.37;;;;;;;19.58;80.38;98709.89;262755;1087;22791;-73
2021/08/15 02:19:50;;;;;;;21.45;18.65;;;;;;;19.59;80.31;98704.11;263038;1087;22838;-72
2021/08/15 02:24:53;;;;;;;19.83;16.80;;;;;;;19.61;79.94;98706.47;262878;1087;22843;-73
2021/08/15 02:29:57;;;;;;;19.60;16.70;;;;;;;19.64;79.75;98701.14;262676;1087;25996;-73
2021/08/15 02:35:00;;;;;;;22.25;17.60;;;;;;;19.65;79.88;98699.20;262678;1087;26002;-72
2021/08/15 02:40:06;;;;;;;20.55;18.10;;;;;;;19.66;79.69;98698.84;262662;1088;24288;-72
2021/08/15 02:45:12;;;;;;;22.40;16.40;;;;;;;19.64;79.17;98689.46;262752;1088;24306;-72
2021/08/15 02:50:17;;;;;;;21.40;16.30;;;;;;;19.62;79.63;98692.53;262696;1087;22991;-72
2021/08/15 02:55:22;;;;;;;19.50;17.40;;;;;;;19.60;79.28;98696.73;262840;1087;22818;-72
2021/08/15 03:00:26;;;;;;;22.10;17.37;;;;;;;19.56;79.20;98685.80;262675;1087;23420;-71
2021/08/15 03:05:33;;;;;;;22.40;16.55;;;;;;;19.54;79.16;98690.77;262724;1090;22847;-72
2021/08/15 03:10:37;;;;;;;23.25;18.80;;;;;;;19.54;79.32;98682.63;262755;1089;23483;-72
2021/08/15 03:15:44;;;;;;;18.60;16.60;;;;;;;19.52;79.11;98681.39;262637;1087;22828;-72
2021/08/15 03:20:48;;;;;;;20.93;16.67;;;;;;;19.52;78.92;98676.77;262838;1087;22863;-72
2021/08/15 03:26:02;;;;;;;19.65;17.55;;;;;;;19.47;79.32;98677.83;262666;1087;24183;-72
2021/08/15 03:31:12;;;;;;;17.57;15.53;;;;;;;19.47;79.22;98674.30;262841;1086;27756;-72
2021/08/15 03:36:19;;;;;;;20.35;15.35;;;;;;;19.47;79.08;98675.11;262869;1087;22802;-72
2021/08/15 03:41:23;;;;;;;20.05;17.30;;;;;;;19.51;79.45;98669.75;262803;1085;24317;-72
2021/08/15 03:46:27;;;;;;;18.00;15.50;;;;;;;19.53;79.09;98667.48;262647;1087;25874;-71
2021/08/15 03:51:30;;;;;;;17.40;15.30;;;;;;;19.52;78.99;98665.09;262649;1086;22766;-72
2021/08/15 03:56:33;;;;;;;19.30;16.10;;;;;;;19.54;79.15;98660.89;262684;1086;25887;-72
2021/08/15 04:01:43;;;;;;;19.43;15.27;;;;;;;19.57;78.90;98651.25;262727;1087;24271;-73
2021/08/15 04:07:07;;;;;;;17.70;14.20;;;;;;;19.66;79.14;98657.31;262716;1087;22841;-72
2021/08/15 04:12:10;;;;;;;19.10;15.00;;;;;;;19.74;79.20;98645.47;262661;1088;24527;-73
2021/08/15 04:17:20;;;;;;;18.70;14.20;;;;;;;19.71;78.70;98646.15;262652;1087;25839;-71
2021/08/15 04:22:30;;;;;;;15.75;13.80;;;;;;;19.79;78.68;98652.55;262758;1089;25957;-72
2021/08/15 04:27:33;;;;;;;16.95;14.75;;;;;;;19.79;78.31;98649.84;262708;1090;25878;-72
2021/08/15 04:32:37;;;;;;;18.15;15.20;;;;;;;19.91;78.67;98643.52;262611;1087;24172;-72
2021/08/15 04:37:42;;;;;;;15.70;13.65;;;;;;;19.96;78.52;98646.78;262680;1089;22780;-72
2021/08/15 04:42:45;;;;;;;18.27;14.53;;;;;;;20.02;78.91;98638.33;262705;1085;25886;-72
2021/08/15 04:48:00;;;;;;;18.20;15.00;;;;;;;20.14;78.37;98636.27;262624;1086;25871;-72
2021/08/15 04:53:04;;;;;;;17.50;15.00;;;;;;;20.28;78.70;98635.79;262694;1088;22932;-72
2021/08/15 04:58:26;;;;;;;15.60;13.75;;;;;;;20.49;79.03;98632.72;262678;1087;24243;-72
2021/08/15 05:03:30;;;;;;;17.37;13.50;;;;;;;20.66;78.75;98636.16;262760;1089;24342;-72
2021/08/15 05:08:34;;;;;;;14.63;12.97;;;;;;;20.83;78.54;98638.48;262594;1090;22995;-73
2021/08/15 05:13:38;;;;;;;18.37;12.67;;;;;;;20.90;77.33;98640.55;262592;1089;22799;-72
2021/08/15 05:18:42;;;;;;;13.88;12.28;;;;;;;20.99;77.64;98641.09;262684;1087;25887;-72
2021/08/15 05:23:46;;;;;;;16.15;12.50;;;;;;;21.13;77.54;98637.84;262538;1088;22875;-72
2021/08/15 05:28:49;;;;;;;13.88;12.48;;;;;;;21.29;77.82;98636.94;262638;1090;22937;-72
2021/08/15 05:33:52;;;;;;;13.73;12.15;;;;;;;21.48;77.68;98627.92;262698;1089;25860;-72
2021/08/15 05:38:56;;;;;;;13.55;11.60;;;;;;;21.58;77.07;98629.27;262647;1090;24054;-71
2021/08/15 05:43:59;;;;;;;12.78;11.53;;;;;;;21.76;76.65;98632.27;262601;1090;22802;-71
2021/08/15 05:49:09;;;;;;;15.10;12.57;;;;;;;21.83;76.31;98633.15;262756;1090;25989;-71
2021/08/15 05:54:27;;;;;;;13.83;12.30;;;;;;;21.97;76.69;98627.12;262698;1089;24941;-71
2021/08/15 05:59:35;;;;;;;14.83;12.43;;;;;;;22.09;76.24;98628.85;262793;1086;25787;-72
2021/08/15 06:04:38;;;;;;;13.35;11.93;;;;;;;22.27;76.09;98628.29;262655;1086;22876;-71
2021/08/15 06:09:41;;;;;;;15.28;12.65;;;;;;;22.47;76.11;98631.67;262655;1090;25926;-72
2021/08/15 06:14:44;;;;;;;14.10;11.28;;;;;;;22.52;75.23;98640.31;262689;1090;26309;-72
2021/08/15 06:19:48;;;;;;;12.27;11.03;;;;;;;22.62;75.53;98625.22;262782;1088;26261;-72
2021/08/15 06:24:52;;;;;;;12.93;11.57;;;;;;;22.86;75.47;98632.13;262773;1085;25761;-72
2021/08/15 06:29:58;;;;;;;12.98;11.68;;;;;;;22.99;74.95;98635.38;262716;1089;24284;-72
2021/08/15 06:35:01;;;;;;;13.40;11.70;;;;;;;23.15;74.79;98631.66;262723;1089;23289;-72
2021/08/15 06:40:05;;;;;;;13.15;11.68;;;;;;;23.37;75.02;98633.41;262919;1087;23359;-72
2021/08/15 06:45:10;;;;;;;14.63;11.47;;;;;;;23.58;74.34;98640.22;262787;1087;25863;-72
2021/08/15 06:50:14;;;;;;;13.43;12.03;;;;;;;23.85;74.65;98637.28;262847;1086;23028;-72
2021/08/15 06:55:17;;;;;;;12.93;11.63;;;;;;;24.17;73.94;98636.72;262769;1087;22848;-72
2021/08/15 07:00:21;;;;;;;13.45;12.15;;;;;;;24.43;73.38;98636.45;262784;1089;23353;-72
2021/08/15 07:05:25;;;;;;;13.10;11.78;;;;;;;24.71;73.09;98639.72;262720;1089;22827;-72
2021/08/15 07:10:29;;;;;;;16.50;11.60;;;;;;;25.08;71.51;98644.86;262691;1087;22756;-72
2021/08/15 07:15:36;;;;;;;13.43;12.10;;;;;;;25.38;70.83;98651.19;262854;1087;25883;-72
2021/08/15 07:20:39;;;;;;;13.83;12.43;;;;;;;25.78;69.90;98649.22;262634;1087;23324;-72
2021/08/15 07:25:42;;;;;;;12.38;11.18;;;;;;;26.10;69.61;98645.66;262589;1089;26002;-72
2021/08/15 07:30:46;;;;;;;12.30;11.20;;;;;;;26.33;68.47;98650.70;262630;1087;22850;-71
2021/08/15 07:35:50;;;;;;;13.10;11.80;;;;;;;26.55;68.28;98653.35;262799;1087;23608;-73
2021/08/15 07:40:55;;;;;;;11.93;10.70;;;;;;;26.61;67.31;98649.00;262646;1085;24345;-73
2021/08/15 07:45:58;;;;;;;14.80;11.60;;;;;;;26.46;66.27;98643.58;262611;1090;25880;-72
2021/08/15 07:51:02;;;;;;;12.58;11.28;;;;;;;26.63;65.93;98644.67;263004;1087;22769;-72
2021/08/15 07:56:05;;;;;;;13.30;11.90;;;;;;;26.79;65.33;98655.23;262668;1087;26210;-71
2021/08/15 08:01:08;;;;;;;14.18;12.05;;;;;;;26.93;65.06;98648.08;262636;1088;24132;-73
2021/08/15 08:06:12;;;;;;;13.73;12.33;;;;;;;27.12;64.58;98650.31;262880;1086;27098;-72
2021/08/15 08:11:20;;;;;;;13.80;12.40;;;;;;;27.10;63.28;98651.89;262835;1090;22791;-72
2021/08/15 08:16:24;;;;;;;13.55;11.93;;;;;;;27.29;64.19;98648.62;262620;1087;22825;-73
2021/08/15 08:21:35;;;;;;;14.53;13.03;;;;;;;27.52;62.95;98650.06;262621;1090;24064;-72
2021/08/15 08:26:41;;;;;;;13.78;12.45;;;;;;;27.72;62.92;98655.00;262719;1089;22862;-72
2021/08/15 08:31:44;;;;;;;12.33;11.13;;;;;;;27.98;61.88;98648.84;262712;1088;22782;-73
2021/08/15 08:36:47;;;;;;;14.17;12.60;;;;;;;28.16;61.61;98650.64;262658;1089;22831;-72
2021/08/15 08:42:09;;;;;;;13.73;12.33;;;;;;;28.32;61.77;98650.84;262680;1088;26308;-72
2021/08/15 08:47:18;;;;;;;10.65;9.58;;;;;;;28.50;59.59;98639.62;262550;1088;24335;-72
2021/08/15 08:52:29;;;;;;;11.20;9.58;;;;;;;28.59;58.16;98643.84;262615;1089;25970;-71
2021/08/15 08:57:32;;;;;;;10.38;9.48;;;;;;;28.76;58.81;98639.31;262821;1089;22806;-72
2021/08/15 09:02:41;;;;;;;9.43;8.60;;;;;;;28.88;57.12;98624.97;262973;1090;23026;-72
2021/08/15 09:08:06;;;;;;;8.95;8.10;;;;;;;28.90;55.76;98619.81;262764;1088;22829;-72
2021/08/15 09:13:10;;;;;;;17.70;8.80;;;;;;;28.95;55.64;98624.09;263102;1089;23291;-72
2021/08/15 09:18:31;;;;;;;8.45;7.75;;;;;;;29.05;54.73;98612.11;262616;1089;23053;-73
2021/08/15 09:23:35;;;;;;;7.90;7.20;;;;;;;29.10;54.11;98614.41;262298;1090;22779;-72
2021/08/15 09:28:44;;;;;;;8.67;6.90;;;;;;;29.16;52.93;98604.45;262946;1087;25880;-72
2021/08/15 09:33:47;;;;;;;7.75;7.05;;;;;;;29.14;52.52;98600.55;262776;1088;23343;-72
2021/08/15 09:38:56;;;;;;;8.65;7.13;;;;;;;29.17;52.03;98597.75;262706;1090;25854;-72
2021/08/15 09:44:26;;;;;;;8.53;7.58;;;;;;;29.23;51.84;98602.77;262755;1087;22785;-72
2021/08/15 09:49:49;;;;;;;8.80;7.85;;;;;;;29.35;51.42;98599.45;262657;1089;27112;-72
2021/08/15 09:55:02;;;;;;;8.43;7.73;;;;;;;29.63;50.61;98597.39;262787;1090;26002;-72
2021/08/15 10:00:26;;;;;;;8.90;8.10;;;;;;;29.98;50.24;98595.99;262689;1089;22993;-72
2021/08/15 10:05:33;;;;;;;9.10;7.15;;;;;;;30.01;49.13;98584.09;262641;1087;25887;-72
2021/08/15 10:10:38;;;;;;;8.25;7.45;;;;;;;29.92;49.26;98594.91;262690;1089;22843;-72
2021/08/15 10:15:54;;;;;;;8.38;7.58;;;;;;;29.98;48.67;98589.67;262887;1089;27587;-72
2021/08/15 10:21:14;;;;;;;8.70;7.85;;;;;;;30.00;48.25;98576.23;262783;1089;22934;-72
2021/08/15 10:26:42;;;;;;;7.85;7.08;;;;;;;29.97;48.08;98583.38;262738;1085;22813;-72
2021/08/15 10:32:07;;;;;;;8.93;8.17;;;;;;;29.89;47.57;98572.91;262790;1087;22737;-71
2021/08/15 10:37:30;;;;;;;7.45;6.80;;;;;;;29.86;47.82;98569.01;262713;1087;22762;-73
2021/08/15 10:42:41;;;;;;;8.80;8.10;;;;;;;29.86;47.98;98561.49;262749;1090;24048;-71
2021/08/15 10:48:04;;;;;;;8.30;7.60;;;;;;;29.98;47.97;98562.06;262876;1090;25880;-71
2021/08/15 10:53:26;;;;;;;7.90;7.20;;;;;;;29.96;45.22;98554.20;262894;1087;27048;-71
2021/08/15 10:58:48;;;;;;;6.98;6.38;;;;;;;29.96;46.43;98548.68;262816;1085;25866;-71
2021/08/15 11:03:54;;;;;;;6.33;5.83;;;;;;;30.04;45.28;98546.56;262706;1085;24045;-71
2021/08/15 11:09:05;;;;;;;7.48;6.78;;;;;;;30.12;45.63;98536.13;262682;1087;22827;-71
2021/08/15 11:14:24;;;;;;;7.30;6.68;;;;;;;30.20;43.75;98532.79;262880;1086;25111;-72
2021/08/15 11:19:30;;;;;;;6.90;6.20;;;;;;;30.26;43.79;98532.30;262863;1087;26461;-71
2021/08/15 11:24:34;;;;;;;6.85;6.25;;;;;;;30.32;43.69;98519.55;263191;1087;22837;-71
2021/08/15 11:29:39;;;;;;;6.65;6.13;;;;;;;30.42;43.12;98526.81;262722;1087;22769;-72
2021/08/15 11:35:11;;;;;;;6.97;6.37;;;;;;;30.42;43.23;98524.05;262667;1087;22921;-72
2021/08/15 11:40:29;;;;;;;9.85;6.33;;;;;;;30.37;42.93;98525.34;262669;1087;23746;-71
2021/08/15 11:45:33;;;;;;;7.55;6.85;;;;;;;30.45;43.40;98523.20;262712;1087;26652;-72
2021/08/15 11:50:39;;;;;;;8.35;6.63;;;;;;;30.52;43.17;98522.28;262642;1087;24774;-72
2021/08/15 11:55:44;;;;;;;7.50;6.70;;;;;;;30.54;42.58;98517.88;262755;1087;23305;-71
2021/08/15 12:00:48;;;;;;;7.33;6.60;;;;;;;30.60;42.35;98512.61;262752;1087;22767;-72
2021/08/15 12:06:01;;;;;;;7.23;6.63;;;;;;;30.67;42.21;98514.44;262858;1087;22767;-72
2021/08/15 12:11:24;;;;;;;7.78;6.88;;;;;;;30.73;42.20;98512.70;262847;1087;22777;-71
2021/08/15 12:16:43;;;;;;;7.18;6.58;;;;;;;30.80;42.26;98504.23;262934;1087;22766;-71
2021/08/15 12:21:47;;;;;;;7.50;6.90;;;;;;;30.74;41.38;98503.20;262971;1088;24531;-72
2021/08/15 12:27:13;;;;;;;7.63;6.95;;;;;;;30.78;42.02;98492.84;262655;1090;26008;-71
2021/08/15 12:32:30;;;;;;;12.20;8.05;;;;;;;30.80;41.43;98493.17;262740;1088;26219;-71
2021/08/15 12:37:43;;;;;;;7.98;7.23;;;;;;;30.76;41.35;98491.72;262664;1090;22926;-71
2021/08/15 12:43:11;;;;;;;7.50;6.80;;;;;;;30.85;41.99;98481.60;262699;1090;25900;-72
2021/08/15 12:48:17;;;;;;;6.97;6.37;;;;;;;30.95;41.65;98484.52;262858;1087;22790;-71
2021/08/15 12:53:22;;;;;;;8.27;7.37;;;;;;;30.97;40.65;98473.81;262806;1087;25922;-72
2021/08/15 12:58:26;;;;;;;7.28;6.55;;;;;;;30.97;40.33;98468.28;262816;1087;25777;-71
2021/08/15 13:03:43;;;;;;;7.38;6.63;;;;;;;30.99;40.93;98463.08;262828;1085;24294;-70
2021/08/15 13:09:09;;;;;;;8.27;7.47;;;;;;;31.08;41.40;98454.98;262801;1086;23366;-71
2021/08/15 13:14:12;;;;;;;7.70;7.08;;;;;;;31.12;41.00;98454.89;262877;1086;24042;-71
2021/08/15 13:19:27;;;;;;;7.33;6.60;;;;;;;31.12;40.37;98450.13;262646;1087;25875;-71
2021/08/15 13:24:44;;;;;;;7.10;6.38;;;;;;;31.09;40.39;98441.91;262669;1087;26232;-72
2021/08/15 13:29:47;;;;;;;6.88;6.30;;;;;;;31.05;39.96;98442.79;262656;1087;22930;-71
2021/08/15 13:34:57;;;;;;;7.28;6.63;;;;;;;31.03;40.14;98436.14;262616;1086;22815;-72
2021/08/15 13:40:19;;;;;;;8.80;6.53;;;;;;;31.08;40.05;98434.84;262638;1087;25858;-72
2021/08/15 13:45:23;;;;;;;6.75;5.98;;;;;;;31.12;40.07;98428.00;262707;1085;23013;-72
2021/08/15 13:50:39;;;;;;;9.00;6.53;;;;;;;31.13;39.73;98424.03;262937;1087;22943;-72
2021/08/15 13:55:45;;;;;;;7.45;5.95;;;;;;;31.08;39.81;98424.55;262731;1087;22771;-72
2021/08/15 14:00:52;;;;;;;7.88;7.18;;;;;;;31.03;39.41;98427.84;262716;1085;24309;-71
2021/08/15 14:05:55;;;;;;;6.55;6.05;;;;;;;31.01;39.80;98427.48;262791;1087;25768;-71
2021/08/15 14:10:58;;;;;;;6.10;5.60;;;;;;;31.05;40.30;98415.13;262637;1087;22825;-72
2021/08/15 14:16:07;;;;;;;16.93;15.18;;;;;;;31.13;40.08;98415.73;262629;1088;25893;-72
2021/08/15 14:21:13;;;;;;;6.65;5.80;;;;;;;31.10;39.06;98394.45;262642;1090;22788;-71
2021/08/15 14:26:20;;;;;;;7.70;6.27;;;;;;;31.08;39.22;98407.95;262749;1090;22827;-72
2021/08/15 14:31:37;;;;;;;6.80;5.73;;;;;;;31.13;39.18;98407.44;262758;1090;22800;-72
2021/08/15 14:36:46;;;;;;;6.33;5.80;;;;;;;31.17;39.32;98401.78;262622;1086;22832;-71
2021/08/15 14:41:50;;;;;;;6.73;5.85;;;;;;;31.18;39.16;98404.11;262790;1087;22780;-73
2021/08/15 14:46:54;;;;;;;5.60;5.10;;;;;;;31.16;38.83;98400.25;262638;1087;22937;-72
2021/08/15 14:51:57;;;;;;;6.68;5.70;;;;;;;31.17;38.77;98393.48;262758;1087;24454;-71
2021/08/15 14:57:00;;;;;;;5.80;5.30;;;;;;;31.18;38.71;98398.58;262637;1086;23083;-71
2021/08/15 15:02:07;;;;;;;6.18;5.43;;;;;;;31.25;39.16;98388.55;262674;1087;22763;-72
2021/08/15 15:07:12;;;;;;;5.63;5.13;;;;;;;31.33;38.85;98387.13;262712;1087;22991;-71
2021/08/15 15:12:15;;;;;;;6.23;5.40;;;;;;;31.39;38.63;98390.90;262699;1087;23722;-71
2021/08/15 15:17:19;;;;;;;5.97;5.33;;;;;;;31.37;38.27;98387.81;262703;1087;25836;-72
2021/08/15 15:22:23;;;;;;;6.15;5.60;;;;;;;31.38;38.28;98381.83;262623;1087;25878;-71
2021/08/15 15:27:26;;;;;;;6.50;5.85;;;;;;;31.30;38.05;98376.92;262839;1087;25855;-72
2021/08/15 15:32:29;;;;;;;6.05;5.48;;;;;;;31.23;38.54;98370.39;262684;1085;22953;-73
2021/08/15 15:37:51;;;;;;;11.05;5.35;;;;;;;31.22;38.59;98366.06;262581;1087;24012;-71
2021/08/15 15:42:56;;;;;;;6.00;5.50;;;;;;;31.22;38.58;98359.77;262742;1086;22934;-71
2021/08/15 15:47:59;;;;;;;6.83;5.85;;;;;;;31.18;38.47;98357.09;262637;1087;22781;-73
2021/08/15 15:53:03;;;;;;;7.25;5.88;;;;;;;31.07;38.73;98348.31;262733;1086;24349;-71
2021/08/15 15:58:12;;;;;;;6.93;5.37;;;;;;;30.98;38.82;98365.52;262678;1087;24192;-72
2021/08/15 16:03:22;;;;;;;7.70;5.15;;;;;;;30.84;38.84;98360.38;262751;1086;25990;-71
2021/08/15 16:08:26;;;;;;;10.53;5.40;;;;;;;30.64;39.18;98358.53;262777;1088;22911;-72
2021/08/15 16:13:29;;;;;;;11.58;6.68;;;;;;;30.35;39.57;98350.92;262802;1089;22850;-72
2021/08/15 16:18:33;;;;;;;9.73;5.80;;;;;;;30.13;39.92;98347.91;262738;1087;22822;-72
2021/08/15 16:23:36;;;;;;;15.58;7.25;;;;;;;29.88;40.65;98344.97;262846;1090;25906;-72
2021/08/15 16:28:53;;;;;;;23.08;7.30;;;;;;;29.69;41.18;98348.09;262724;1090;22789;-72
2021/08/15 16:34:17;;;;;;;28.78;7.73;;;;;;;29.53;41.53;98342.53;262827;1090;24062;-72
2021/08/15 16:39:20;;;;;;;11.43;6.43;;;;;;;29.43;41.69;98338.80;262939;1090;27249;-72
2021/08/15 16:44:23;;;;;;;7.58;5.68;;;;;;;29.37;41.97;98335.00;262767;1090;22763;-72
2021/08/15 16:49:29;;;;;;;8.45;6.10;;;;;;;29.34;42.25;98328.34;262736;1090;25890;-71
2021/08/15 16:54:32;;;;;;;5.87;5.37;;;;;;;29.33;42.07;98320.50;262815;1090;25806;-72
2021/08/15 16:59:35;;;;;;;5.80;5.20;;;;;;;29.44;41.55;98331.31;262686;1089;27105;-71
2021/08/15 17:04:39;;;;;;;5.95;5.15;;;;;;;29.50;41.23;98315.80;262823;1089;24361;-72
2021/08/15 17:09:43;;;;;;;8.43;5.03;;;;;;;29.52;41.03;98314.17;262650;1089;24613;-71
2021/08/15 17:14:48;;;;;;;5.75;5.25;;;;;;;29.49;41.04;98308.72;262815;1089;22819;-71
2021/08/15 17:19:51;;;;;;;5.57;5.10;;;;;;;29.35;41.90;98320.84;262652;1090;26149;-72
2021/08/15 17:24:54;;;;;;;11.55;6.38;;;;;;;29.13;42.23;98313.00;262679;1089;22821;-72
2021/08/15 17:29:57;;;;;;;8.58;5.85;;;;;;;28.86;42.19;98310.37;262367;1088;22782;-72
2021/08/15 17:35:00;;;;;;;5.75;5.13;;;;;;;28.61;42.25;98314.36;262666;1088;22786;-72
2021/08/15 17:40:03;;;;;;;6.08;5.50;;;;;;;28.30;42.99;98316.47;262665;1088;24309;-72
2021/08/15 17:45:08;;;;;;;6.35;5.75;;;;;;;27.99;43.20;98316.57;262886;1089;22848;-72
2021/08/15 17:50:13;;;;;;;10.40;6.18;;;;;;;27.66;43.93;98319.77;262780;1087;24196;-72
2021/08/15 17:55:16;;;;;;;12.10;5.93;;;;;;;27.30;44.22;98331.22;262632;1085;22763;-72
2021/08/15 18:00:21;;;;;;;16.98;6.85;;;;;;;26.94;45.27;98328.11;262796;1087;22862;-71
2021/08/15 18:05:25;;;;;;;21.83;7.18;;;;;;;26.57;45.33;98340.61;262830;1087;22763;-72
2021/08/15 18:10:28;;;;;;;15.00;6.70;;;;;;;26.23;46.14;98336.61;262440;1086;24039;-72
2021/08/15 18:15:32;;;;;;;15.88;7.18;;;;;;;25.92;46.84;98352.08;262883;1087;22959;-72
2021/08/15 18:20:36;;;;;;;18.13;7.53;;;;;;;25.61;47.67;98346.39;262843;1087;23391;-72
2021/08/15 18:25:40;;;;;;;12.48;6.60;;;;;;;25.32;48.28;98351.19;262760;1086;22975;-72
2021/08/15 18:30:45;;;;;;;11.33;6.40;;;;;;;25.05;48.49;98352.45;262726;1087;25864;-72
2021/08/15 18:35:50;;;;;;;11.13;7.28;;;;;;;24.80;49.52;98351.74;262704;1087;25819;-71
2021/08/15 18:40:58;;;;;;;9.43;6.73;;;;;;;24.57;49.75;98350.95;262719;1087;22806;-72
2021/08/15 18:46:02;;;;;;;8.25;6.05;;;;;;;24.35;50.54;98339.23;262923;1087;28815;-72
2021/08/15 18:51:06;;;;;;;10.87;8.60;;;;;;;24.14;51.21;98333.77;262866;1087;22780;-72
2021/08/15 18:56:11;;;;;;;9.30;7.43;;;;;;;23.91;51.91;98343.90;262748;1087;22802;-72
2021/08/15 19:01:16;;;;;;;7.58;6.30;;;;;;;23.69;52.43;98337.57;262654;1087;25862;-71
2021/08/15 19:06:19;;;;;;;8.33;6.43;;;;;;;23.51;52.73;98342.98;262770;1086;25890;-72
2021/08/15 19:11:24;;;;;;;7.38;6.58;;;;;;;23.35;53.65;98346.06;262639;1087;25874;-73
2021/08/15 19:16:30;;;;;;;9.88;6.93;;;;;;;23.22;54.08;98344.82;262743;1087;26232;-72
2021/08/15 19:21:34;;;;;;;9.53;7.10;;;;;;;23.14;54.82;98345.95;262894;1089;25512;-72
2021/08/15 19:26:39;;;;;;;9.15;7.00;;;;;;;23.07;55.25;98358.39;262664;1089;24325;-73
2021/08/15 19:31:42;;;;;;;8.70;6.80;;;;;;;23.00;55.53;98352.90;262778;1089;26289;-72
2021/08/15 19:36:45;;;;;;;8.38;6.73;;;;;;;22.90;55.92;98342.67;262688;1087;22815;-72
2021/08/15 19:41:50;;;;;;;8.67;6.97;;;;;;;22.81;56.38;98353.17;262887;1086;27523;-72
2021/08/15 19:46:53;;;;;;;9.00;6.85;;;;;;;22.72;56.23;98340.64;262736;1086;26270;-72
2021/08/15 19:51:58;;;;;;;8.23;6.68;;;;;;;22.68;56.38;98348.02;262805;1087;22943;-73
2021/08/15 19:57:03;;;;;;;8.60;6.60;;;;;;;22.67;56.65;98337.48;262793;1087;24459;-72
2021/08/15 20:02:07;;;;;;;8.80;6.48;;;;;;;22.64;56.66;98346.44;262735;1087;26271;-73
2021/08/15 20:07:11;;;;;;;9.35;6.45;;;;;;;22.61;56.89;98347.97;262586;1087;22917;-73
2021/08/15 20:12:15;;;;;;;7.45;6.60;;;;;;;22.55;57.00;98346.74;262714;1087;27243;-72
2021/08/15 20:17:19;;;;;;;9.08;6.58;;;;;;;22.50;56.87;98338.93;262790;1087;25849;-72
2021/08/15 20:22:24;;;;;;;10.30;6.50;;;;;;;22.45;57.41;98331.08;262690;1087;22857;-72
2021/08/15 20:27:28;;;;;;;8.55;5.83;;;;;;;22.38;57.50;98318.97;262696;1089;25970;-71
2021/08/15 20:32:31;;;;;;;7.70;6.80;;;;;;;22.35;57.99;98311.52;262666;1088;22780;-72
2021/08/15 20:37:38;;;;;;;6.65;5.83;;;;;;;22.38;58.28;98301.80;262620;1089;27291;-72
2021/08/15 20:42:41;;;;;;;8.20;6.60;;;;;;;22.38;57.88;98297.14;262669;1087;22786;-73
2021/08/15 20:47:57;;;;;;;6.90;6.20;;;;;;;22.34;57.82;98290.07;262795;1089;25884;-72
2021/08/15 20:53:16;;;;;;;9.63;6.75;;;;;;;22.29;58.52;98287.69;262676;1088;22848;-72
2021/08/15 20:58:19;;;;;;;7.10;6.40;;;;;;;22.24;58.11;98290.75;262688;1088;22814;-72
2021/08/15 21:03:24;;;;;;;7.45;6.38;;;;;;;22.17;57.95;98303.16;262931;1090;22862;-72
2021/08/15 21:08:28;;;;;;;8.55;6.23;;;;;;;22.11;57.92;98298.45;262738;1088;26091;-72
2021/08/15 21:13:31;;;;;;;8.33;6.07;;;;;;;22.05;57.96;98276.97;262704;1089;24322;-72
2021/08/15 21:18:47;;;;;;;7.35;6.00;;;;;;;22.08;58.17;98280.89;262589;1089;22862;-72
2021/08/15 21:23:50;;;;;;;7.75;6.18;;;;;;;22.12;58.27;98272.72;262695;1087;26286;-72
2021/08/15 21:28:56;;;;;;;6.78;6.08;;;;;;;22.15;58.12;98271.99;262639;1087;26018;-72
2021/08/15 21:34:02;;;;;;;9.08;7.85;;;;;;;22.17;58.38;98270.42;262814;1085;24290;-72
2021/08/15 21:39:08;;;;;;;7.93;6.63;;;;;;;22.13;58.36;98268.84;262765;1085;22812;-73
2021/08/15 21:44:12;;;;;;;10.40;7.53;;;;;;;22.00;58.60;98250.04;262661;1087;23219;-73
2021/08/15 21:49:15;;;;;;;8.53;6.80;;;;;;;21.86;59.11;98260.84;262888;1089;27260;-72
2021/08/15 21:54:23;;;;;;;8.77;6.70;;;;;;;21.76;59.61;98251.41;262670;1089;22777;-73
2021/08/15 21:59:26;;;;;;;8.15;6.93;;;;;;;21.69;60.20;98248.63;262628;1088;22825;-71
2021/08/15 22:04:32;;;;;;;7.68;6.90;;;;;;;21.60;60.53;98231.78;262663;1087;26031;-71
2021/08/15 22:09:35;;;;;;;8.85;7.58;;;;;;;21.50;60.64;98222.31;262614;1089;22851;-71
2021/08/15 22:14:40;;;;;;;7.85;6.85;;;;;;;21.43;61.25;98212.13;262676;1090;27192;-71
2021/08/15 22:19:43;;;;;;;9.40;7.53;;;;;;;21.40;61.37;98201.98;262662;1087;24361;-72
2021/08/15 22:24:46;;;;;;;8.53;7.03;;;;;;;21.37;61.36;98195.34;262869;1089;22803;-72
2021/08/15 22:29:49;;;;;;;9.57;7.33;;;;;;;21.28;61.66;98181.26;262636;1089;24639;-71
2021/08/15 22:34:54;;;;;;;8.30;7.20;;;;;;;21.20;61.41;98176.89;262698;1088;26300;-71
2021/08/15 22:39:57;;;;;;;9.87;7.60;;;;;;;21.09;62.09;98165.89;262826;1088;23429;-72
2021/08/15 22:45:02;;;;;;;12.00;8.33;;;;;;;21.02;62.57;98165.81;262715;1089;22863;-71
2021/08/15 22:50:18;;;;;;;9.63;7.97;;;;;;;20.97;62.98;98152.53;262669;1087;25858;-72
2021/08/15 22:55:40;;;;;;;9.37;7.87;;;;;;;20.90;63.12;98153.26;262623;1090;24346;-72
2021/08/15 23:00:44;;;;;;;9.65;8.03;;;;;;;20.84;63.68;98139.17;262579;1089;22769;-71
2021/08/15 23:05:49;;;;;;;12.67;8.50;;;;;;;20.80;63.61;98138.38;262738;1086;22785;-71
2021/08/15 23:10:53;;;;;;;9.93;7.90;;;;;;;20.77;63.83;98132.88;262739;1090;25979;-71
2021/08/15 23:16:00;;;;;;;9.33;7.13;;;;;;;20.76;64.43;98143.00;262611;1088;23609;-71
2021/08/15 23:21:09;;;;;;;9.63;8.23;;;;;;;20.80;64.78;98137.58;262703;1087;24352;-72
2021/08/15 23:26:30;;;;;;;10.50;8.35;;;;;;;20.89;64.48;98135.35;262633;1087;23458;-72
2021/08/15 23:31:40;;;;;;;9.30;8.33;;;;;;;20.96;64.73;98112.88;262830;1087;22768;-72
2021/08/15 23:36:44;;;;;;;10.20;7.50;;;;;;;20.98;64.60;98105.87;262580;1088;22779;-71